CPX303 Details

Departure: Guam International Airport (PGUM)
Arrival: Daniel K Inouye International Airport (PHNL)
Route: DEWSS A450 JIMOS A450 NGUEN A450 BRIUN NONNI BOOKE BOOKE8


Current Weather Information
PGUM 200854Z 05006KT 10SM FEW020 27/22 A2986 RMK AO2 SLP103 60000 T02670222 53013
PHNL 200853Z 01003KT 10SM FEW032 FEW055 23/16 A3008 RMK AO2 SLP185 T02280161 51017